createdAt,value
2022-08-17T00:00:42.987Z,23.60
2022-08-17T00:03:13.695Z,23.56
2022-08-17T00:05:50.381Z,23.50
2022-08-17T00:08:30.569Z,23.50
2022-08-17T00:10:59.833Z,23.42
2022-08-17T00:13:32.831Z,23.40
2022-08-17T00:16:09.689Z,23.40
2022-08-17T00:18:58.207Z,23.30
2022-08-17T00:21:28.038Z,23.30
2022-08-17T00:24:16.746Z,23.30
2022-08-17T00:26:45.556Z,23.22
2022-08-17T00:29:19.531Z,23.20
2022-08-17T00:31:49.711Z,23.20
2022-08-17T00:34:18.117Z,23.20
2022-08-17T00:36:45.920Z,23.12
2022-08-17T00:39:13.733Z,23.10
2022-08-17T00:41:42.394Z,23.10
2022-08-17T00:44:12.381Z,23.00
2022-08-17T00:46:43.632Z,23.00
2022-08-17T00:49:14.797Z,22.98
2022-08-17T00:51:56.871Z,22.90
2022-08-17T00:54:31.275Z,22.84
2022-08-17T00:57:05.563Z,22.80
2022-08-17T00:59:40.335Z,22.80
2022-08-17T01:02:12.567Z,22.80
2022-08-17T01:04:42.188Z,22.80
2022-08-17T01:07:12.158Z,22.80
2022-08-17T01:09:40.877Z,22.80
2022-08-17T01:12:10.403Z,22.80
2022-08-17T01:14:40.286Z,22.80
2022-08-17T01:17:09.701Z,22.76
2022-08-17T01:19:40.936Z,22.70
2022-08-17T01:22:11.410Z,22.70
2022-08-17T01:24:43.198Z,22.70
2022-08-17T01:27:13.761Z,22.70
2022-08-17T01:29:46.570Z,22.70
2022-08-17T01:32:15.024Z,22.60
2022-08-17T01:34:50.545Z,22.60
2022-08-17T01:37:27.771Z,22.60
2022-08-17T01:40:13.975Z,22.60
2022-08-17T01:43:10.574Z,22.60
2022-08-17T01:45:44.413Z,22.50
2022-08-17T01:48:13.352Z,22.50
2022-08-17T01:50:44.757Z,22.50
2022-08-17T01:53:29.847Z,22.40
2022-08-17T01:56:05.088Z,22.40
2022-08-17T01:58:34.948Z,22.30
2022-08-17T02:01:05.642Z,22.30
2022-08-17T02:03:36.179Z,22.30
2022-08-17T02:06:06.073Z,22.30
2022-08-17T02:09:02.636Z,22.30
2022-08-17T02:11:34.764Z,22.30
2022-08-17T02:14:04.068Z,22.20
2022-08-17T02:16:36.790Z,22.20
2022-08-17T02:19:11.806Z,22.20
2022-08-17T02:21:44.037Z,22.20
2022-08-17T02:24:58.671Z,22.20
2022-08-17T02:27:13.727Z,22.10
2022-08-17T02:29:41.529Z,22.10
2022-08-17T02:32:27.464Z,22.10
2022-08-17T02:34:57.994Z,22.10
2022-08-17T02:37:28.657Z,22.10
2022-08-17T02:39:58.498Z,22.10
2022-08-17T02:42:33.814Z,22.08
2022-08-17T02:45:05.245Z,22.00
2022-08-17T02:47:33.878Z,22.00
2022-08-17T02:50:01.711Z,22.00
2022-08-17T02:52:38.251Z,22.00
2022-08-17T02:55:20.641Z,22.00
2022-08-17T02:57:49.328Z,22.00
2022-08-17T03:00:23.455Z,21.96
2022-08-17T03:02:52.128Z,21.94
2022-08-17T03:05:23.929Z,21.90
2022-08-17T03:07:52.139Z,21.90
2022-08-17T03:10:21.608Z,21.90
2022-08-17T03:12:50.419Z,21.82
2022-08-17T03:15:28.927Z,21.88
2022-08-17T03:17:58.101Z,21.90
2022-08-17T03:20:28.835Z,21.80
2022-08-17T03:23:02.901Z,21.80
2022-08-17T03:25:38.817Z,21.80
2022-08-17T03:28:07.744Z,21.80
2022-08-17T03:30:36.314Z,21.80
2022-08-17T03:33:09.981Z,21.80
2022-08-17T03:35:40.420Z,21.80
2022-08-17T03:38:15.026Z,21.80
2022-08-17T03:40:56.438Z,21.80
2022-08-17T03:43:31.408Z,21.80
2022-08-17T03:46:28.272Z,21.80
2022-08-17T03:49:24.991Z,21.80
2022-08-17T03:52:15.832Z,21.80
2022-08-17T03:55:03.821Z,21.80
2022-08-17T03:57:32.408Z,21.80
2022-08-17T04:00:00.378Z,21.80
2022-08-17T04:02:34.380Z,21.74
2022-08-17T04:05:02.207Z,21.70
2022-08-17T04:07:31.846Z,21.70
2022-08-17T04:10:00.020Z,21.70
2022-08-17T04:12:31.154Z,21.70
2022-08-17T04:14:59.654Z,21.80
2022-08-17T04:17:29.366Z,21.76
2022-08-17T04:19:57.711Z,21.80
2022-08-17T04:22:30.954Z,21.80
2022-08-17T04:25:00.354Z,21.88
2022-08-17T04:27:28.135Z,21.90
2022-08-17T04:29:56.284Z,21.92
2022-08-17T04:32:59.336Z,22.00
2022-08-17T04:35:11.917Z,22.00
2022-08-17T04:37:39.647Z,22.02
2022-08-17T04:40:27.525Z,22.10
2022-08-17T04:43:23.975Z,22.10
2022-08-17T04:46:14.797Z,22.10
2022-08-17T04:48:47.308Z,22.10
2022-08-17T04:51:24.070Z,22.10
2022-08-17T04:53:56.825Z,22.10
2022-08-17T04:56:27.573Z,22.20
2022-08-17T04:59:01.544Z,22.20
2022-08-17T05:01:34.782Z,22.30
2022-08-17T05:04:33.663Z,22.36
2022-08-17T05:06:55.864Z,22.40
2022-08-17T05:09:23.671Z,22.48
2022-08-17T05:11:52.222Z,22.50
2022-08-17T05:14:33.365Z,22.60
2022-08-17T05:17:10.938Z,22.70
2022-08-17T05:19:39.371Z,22.70
2022-08-17T05:22:07.741Z,22.72
2022-08-17T05:24:42.920Z,22.80
2022-08-17T05:27:12.848Z,22.80
2022-08-17T05:29:46.791Z,22.80
2022-08-17T05:32:38.675Z,22.80
2022-08-17T05:35:03.483Z,22.90
2022-08-17T05:37:31.319Z,23.00
2022-08-17T05:39:59.117Z,23.08
2022-08-17T05:42:27.034Z,23.10
2022-08-17T05:44:58.816Z,23.38
2022-08-17T05:47:27.621Z,23.84
2022-08-17T05:49:55.604Z,24.30
2022-08-17T05:53:03.918Z,24.90
2022-08-17T05:55:59.565Z,25.50
2022-08-17T05:59:00.980Z,25.60
2022-08-17T06:01:59.405Z,25.30
2022-08-17T06:05:04.858Z,25.10
2022-08-17T06:07:56.092Z,26.00
2022-08-17T06:10:58.967Z,26.56
2022-08-17T06:14:00.969Z,27.16
2022-08-17T06:16:39.071Z,27.42
2022-08-17T06:19:33.272Z,27.30
2022-08-17T06:22:02.827Z,27.00
2022-08-17T06:25:01.047Z,26.70
2022-08-17T06:27:42.777Z,26.50
2022-08-17T06:30:29.022Z,26.40
2022-08-17T06:33:26.878Z,26.40
2022-08-17T06:36:31.672Z,26.28
2022-08-17T06:40:10.948Z,26.14
2022-08-17T06:43:12.759Z,26.30
2022-08-17T06:45:50.445Z,26.54
2022-08-17T06:48:52.405Z,27.04
2022-08-17T06:52:42.129Z,27.70
2022-08-17T06:55:32.178Z,28.10
2022-08-17T06:58:16.254Z,28.74
2022-08-17T07:00:48.290Z,29.16
2022-08-17T07:03:58.205Z,29.48
2022-08-17T07:06:38.524Z,30.00
2022-08-17T07:09:18.896Z,30.04
2022-08-17T07:12:15.979Z,30.30
2022-08-17T07:14:56.419Z,30.00
2022-08-17T07:17:47.760Z,29.60
2022-08-17T07:20:22.778Z,29.18
2022-08-17T07:23:21.117Z,28.76
2022-08-17T07:25:50.296Z,28.32
2022-08-17T07:28:28.454Z,27.92
2022-08-17T07:30:56.276Z,27.70
2022-08-17T07:33:26.938Z,27.48
2022-08-17T07:35:57.395Z,27.30
2022-08-17T07:38:35.592Z,27.20
2022-08-17T07:41:10.668Z,27.10
2022-08-17T07:43:41.330Z,26.96
2022-08-17T07:46:54.047Z,26.80
2022-08-17T07:49:34.009Z,26.90
2022-08-17T07:52:47.825Z,26.98
2022-08-17T07:54:59.481Z,26.90
2022-08-17T07:57:34.183Z,26.90
2022-08-17T08:00:01.938Z,26.90
2022-08-17T08:02:43.854Z,26.90
2022-08-17T08:05:44.292Z,27.10
2022-08-17T08:08:36.707Z,27.80
2022-08-17T08:11:10.470Z,27.90
2022-08-17T08:13:43.849Z,27.80
2022-08-17T08:16:21.590Z,27.70
2022-08-17T08:19:00.938Z,27.70
2022-08-17T08:21:44.635Z,27.60
2022-08-17T08:24:56.103Z,27.60
2022-08-17T08:27:29.608Z,27.50
2022-08-17T08:30:14.385Z,27.48
2022-08-17T08:33:13.925Z,27.40
2022-08-17T08:36:59.326Z,27.40
2022-08-17T08:39:42.213Z,27.40
2022-08-17T08:42:48.854Z,27.40
2022-08-17T08:45:32.694Z,27.50
2022-08-17T08:48:53.786Z,27.54
2022-08-17T08:51:33.851Z,27.60
2022-08-17T08:54:13.672Z,27.60
2022-08-17T08:57:25.638Z,27.56
2022-08-17T09:00:24.915Z,27.60
2022-08-17T09:03:52.389Z,27.60
2022-08-17T09:06:43.426Z,27.60
2022-08-17T09:10:05.092Z,27.64
2022-08-17T09:12:44.779Z,27.60
2022-08-17T09:15:27.545Z,27.70
2022-08-17T09:19:01.796Z,27.70
2022-08-17T09:21:18.173Z,27.70
2022-08-17T09:24:09.828Z,27.70
2022-08-17T09:27:04.623Z,27.60
2022-08-17T09:29:38.941Z,27.68
2022-08-17T09:32:41.200Z,27.76
2022-08-17T09:35:19.864Z,27.86
2022-08-17T09:37:59.664Z,27.90
2022-08-17T09:40:46.474Z,27.90
2022-08-17T09:43:38.585Z,27.90
2022-08-17T09:47:03.810Z,27.90
2022-08-17T09:49:56.817Z,27.76
2022-08-17T09:52:29.367Z,27.80
2022-08-17T09:55:00.081Z,27.80
2022-08-17T09:57:51.965Z,27.80
2022-08-17T10:00:28.218Z,27.80
2022-08-17T10:03:28.286Z,27.70
2022-08-17T10:06:23.199Z,27.60
2022-08-17T10:09:21.110Z,27.70
2022-08-17T10:12:17.290Z,27.80
2022-08-17T10:15:17.368Z,27.90
2022-08-17T10:17:50.697Z,28.00
2022-08-17T10:20:47.575Z,28.10
2022-08-17T10:23:43.137Z,28.20
2022-08-17T10:26:25.085Z,28.40
2022-08-17T10:28:59.777Z,28.50
2022-08-17T10:31:40.691Z,28.70
2022-08-17T10:34:52.566Z,28.80
2022-08-17T10:37:20.235Z,28.80
2022-08-17T10:40:09.246Z,28.80
2022-08-17T10:42:51.475Z,28.80
2022-08-17T10:45:26.422Z,28.80
2022-08-17T10:48:06.322Z,28.80
2022-08-17T10:50:59.163Z,28.80
2022-08-17T10:53:32.687Z,28.80
2022-08-17T10:56:12.921Z,28.90
2022-08-17T10:58:55.907Z,28.90
2022-08-17T11:01:32.948Z,28.80
2022-08-17T11:04:49.655Z,28.80
2022-08-17T11:07:35.201Z,28.70
2022-08-17T11:10:34.458Z,28.70
2022-08-17T11:13:29.306Z,28.60
2022-08-17T11:16:13.152Z,28.60
2022-08-17T11:19:13.990Z,28.58
2022-08-17T11:22:16.691Z,28.50
2022-08-17T11:24:52.819Z,28.40
2022-08-17T11:27:30.881Z,28.50
2022-08-17T11:30:03.010Z,28.60
2022-08-17T11:32:54.539Z,28.70
2022-08-17T11:35:22.835Z,28.80
2022-08-17T11:38:15.926Z,28.90
2022-08-17T11:41:37.628Z,28.90
2022-08-17T11:45:07.474Z,29.00
2022-08-17T11:48:26.708Z,29.10
2022-08-17T11:51:12.455Z,29.10
2022-08-17T11:53:40.128Z,29.10
2022-08-17T11:56:28.876Z,29.30
2022-08-17T11:58:56.770Z,29.40
2022-08-17T12:01:26.810Z,29.40
2022-08-17T12:04:21.900Z,29.40
2022-08-17T12:06:56.961Z,29.50
2022-08-17T12:09:30.082Z,29.60
2022-08-17T12:12:29.591Z,29.60
2022-08-17T12:15:10.015Z,29.70
2022-08-17T12:17:41.550Z,29.80
2022-08-17T12:20:32.034Z,30.00
2022-08-17T12:23:47.418Z,30.20
2022-08-17T12:26:23.199Z,30.30
2022-08-17T12:29:02.942Z,30.40
2022-08-17T12:31:47.179Z,30.50
2022-08-17T12:34:26.555Z,30.70
2022-08-17T12:37:01.221Z,30.60
2022-08-17T12:39:33.996Z,30.70
2022-08-17T12:42:02.996Z,30.90
2022-08-17T12:44:35.459Z,31.10
2022-08-17T12:47:22.715Z,31.30
2022-08-17T12:49:53.946Z,31.50
2022-08-17T12:52:29.191Z,31.58
2022-08-17T12:55:24.608Z,31.60
2022-08-17T12:57:59.620Z,31.50
2022-08-17T13:00:47.363Z,31.30
2022-08-17T13:03:27.842Z,31.20
2022-08-17T13:06:03.903Z,31.08
2022-08-17T13:08:43.265Z,30.80
2022-08-17T13:11:14.044Z,30.70
2022-08-17T13:13:46.374Z,30.60
2022-08-17T13:16:17.215Z,30.40
2022-08-17T13:19:09.489Z,30.30
2022-08-17T13:21:44.301Z,30.50
2022-08-17T13:24:12.145Z,30.60
2022-08-17T13:26:44.672Z,30.80
2022-08-17T13:29:39.257Z,31.00
2022-08-17T13:32:13.026Z,31.10
2022-08-17T13:35:15.226Z,31.30
2022-08-17T13:37:59.439Z,31.40
2022-08-17T13:40:41.753Z,31.52
2022-08-17T13:43:10.821Z,31.72
2022-08-17T13:45:50.743Z,32.00
2022-08-17T13:48:29.300Z,32.12
2022-08-17T13:50:57.046Z,32.40
2022-08-17T13:53:56.026Z,32.70
2022-08-17T13:56:49.588Z,32.30
2022-08-17T13:59:52.901Z,32.50
2022-08-17T14:02:27.227Z,34.14
2022-08-17T14:04:57.323Z,36.20
2022-08-17T14:07:34.780Z,38.04
2022-08-17T14:10:08.317Z,39.70
2022-08-17T14:12:39.720Z,40.82
2022-08-17T14:15:08.907Z,42.04
2022-08-17T14:17:39.103Z,41.86
2022-08-17T14:20:10.992Z,40.68
2022-08-17T14:22:44.905Z,39.10
2022-08-17T14:25:16.704Z,37.90
2022-08-17T14:27:53.044Z,37.00
2022-08-17T14:30:25.526Z,36.20
2022-08-17T14:32:55.168Z,35.54
2022-08-17T14:35:24.923Z,35.00
2022-08-17T14:37:53.111Z,34.56
2022-08-17T14:40:24.929Z,34.10
2022-08-17T14:42:55.634Z,33.66
2022-08-17T14:45:30.171Z,33.20
2022-08-17T14:48:05.711Z,32.80
2022-08-17T14:50:38.959Z,32.40
2022-08-17T14:53:09.698Z,32.04
2022-08-17T14:55:40.716Z,31.72
2022-08-17T14:58:09.398Z,31.42
2022-08-17T15:00:39.496Z,31.10
2022-08-17T15:03:07.468Z,30.90
2022-08-17T15:05:39.527Z,30.78
2022-08-17T15:08:07.731Z,30.60
2022-08-17T15:10:36.020Z,30.50
2022-08-17T15:13:03.930Z,30.40
2022-08-17T15:15:31.805Z,30.30
2022-08-17T15:18:00.077Z,30.30
2022-08-17T15:20:29.648Z,30.20
2022-08-17T15:22:59.106Z,30.18
2022-08-17T15:25:31.892Z,30.10
2022-08-17T15:28:01.254Z,29.90
2022-08-17T15:30:30.120Z,29.80
2022-08-17T15:32:59.487Z,29.74
2022-08-17T15:35:32.527Z,29.70
2022-08-17T15:38:11.232Z,29.60
2022-08-17T15:40:45.311Z,29.50
2022-08-17T15:43:17.641Z,29.40
2022-08-17T15:45:56.793Z,29.34
2022-08-17T15:48:43.018Z,29.20
2022-08-17T15:51:17.853Z,29.10
2022-08-17T15:53:50.999Z,29.06
2022-08-17T15:56:19.881Z,29.00
2022-08-17T15:58:49.284Z,29.00
2022-08-17T16:02:15.385Z,28.90
2022-08-17T16:04:26.958Z,28.90
2022-08-17T16:06:58.801Z,28.80
2022-08-17T16:09:27.658Z,28.80
2022-08-17T16:11:56.372Z,28.78
2022-08-17T16:14:28.890Z,28.70
2022-08-17T16:17:00.687Z,28.70
2022-08-17T16:19:28.492Z,28.60
2022-08-17T16:21:56.518Z,28.60
2022-08-17T16:24:24.560Z,28.60
2022-08-17T16:26:52.403Z,28.50
2022-08-17T16:29:21.446Z,28.50
2022-08-17T16:31:49.963Z,28.40
2022-08-17T16:34:18.987Z,28.40
2022-08-17T16:36:55.287Z,28.40
2022-08-17T16:39:27.183Z,28.30
2022-08-17T16:41:56.245Z,28.20
2022-08-17T16:44:27.496Z,28.10
2022-08-17T16:46:55.988Z,28.00
2022-08-17T16:49:36.217Z,27.90
2022-08-17T16:52:10.573Z,27.80
2022-08-17T16:54:43.633Z,27.72
2022-08-17T16:57:16.664Z,27.70
2022-08-17T16:59:48.081Z,27.60
2022-08-17T17:02:38.875Z,27.60
2022-08-17T17:06:09.565Z,27.54
2022-08-17T17:09:00.434Z,27.50
2022-08-17T17:11:40.484Z,27.50
2022-08-17T17:14:29.409Z,27.50
2022-08-17T17:17:36.721Z,27.40
2022-08-17T17:20:24.246Z,27.40
2022-08-17T17:23:14.455Z,27.30
2022-08-17T17:26:36.077Z,27.30
2022-08-17T17:29:48.814Z,27.14
2022-08-17T17:32:37.853Z,27.10
2022-08-17T17:35:20.896Z,27.00
2022-08-17T17:37:50.452Z,26.94
2022-08-17T17:40:37.000Z,26.90
2022-08-17T17:43:36.959Z,26.80
2022-08-17T17:46:29.149Z,26.80
2022-08-17T17:48:58.363Z,26.70
2022-08-17T17:52:03.556Z,26.60
2022-08-17T17:55:06.143Z,26.54
2022-08-17T17:57:58.763Z,26.50
2022-08-17T18:00:39.314Z,26.40
2022-08-17T18:03:27.072Z,26.30
2022-08-17T18:06:46.720Z,26.30
2022-08-17T18:10:29.229Z,26.20
2022-08-17T18:13:21.769Z,26.10
2022-08-17T18:15:55.592Z,26.04
2022-08-17T18:18:37.794Z,26.00
2022-08-17T18:21:16.722Z,26.00
2022-08-17T18:24:07.453Z,25.90
2022-08-17T18:26:56.585Z,25.90
2022-08-17T18:29:34.537Z,25.80
2022-08-17T18:32:37.031Z,25.80
2022-08-17T18:35:14.291Z,25.70
2022-08-17T18:37:50.223Z,25.62
2022-08-17T18:40:19.139Z,25.60
2022-08-17T18:43:00.093Z,25.52
2022-08-17T18:45:53.777Z,25.50
2022-08-17T18:48:53.540Z,25.50
2022-08-17T18:51:43.253Z,25.40
2022-08-17T18:54:19.817Z,25.40
2022-08-17T18:56:59.941Z,25.32
2022-08-17T18:59:41.784Z,25.30
2022-08-17T19:02:21.599Z,25.20
2022-08-17T19:05:08.674Z,25.20
2022-08-17T19:07:45.355Z,25.20
2022-08-17T19:10:45.891Z,25.20
2022-08-17T19:13:27.541Z,25.10
2022-08-17T19:16:24.055Z,25.10
2022-08-17T19:19:21.661Z,25.10
2022-08-17T19:21:53.989Z,25.10
2022-08-17T19:24:31.707Z,25.00
2022-08-17T19:27:06.153Z,25.00
2022-08-17T19:29:38.898Z,24.90
2022-08-17T19:32:10.093Z,24.90
2022-08-17T19:34:42.522Z,24.80
2022-08-17T19:37:23.461Z,24.80
2022-08-17T19:40:50.645Z,24.80
2022-08-17T19:44:08.927Z,24.80
2022-08-17T19:47:00.866Z,24.70
2022-08-17T19:49:57.826Z,24.70
2022-08-17T19:52:46.980Z,24.70
2022-08-17T19:55:51.934Z,24.60
2022-08-17T19:58:31.898Z,24.52
2022-08-17T20:01:01.834Z,24.50
2022-08-17T20:03:46.222Z,24.50
2022-08-17T20:06:14.559Z,24.50
2022-08-17T20:08:53.985Z,24.44
2022-08-17T20:12:07.373Z,24.40
2022-08-17T20:14:53.935Z,24.40
2022-08-17T20:17:42.575Z,24.32
2022-08-17T20:20:32.132Z,24.30
2022-08-17T20:23:14.985Z,24.30
2022-08-17T20:25:59.322Z,24.30
2022-08-17T20:28:31.588Z,24.20
2022-08-17T20:30:59.769Z,24.20
2022-08-17T20:33:37.565Z,24.20
2022-08-17T20:36:05.310Z,24.20
2022-08-17T20:38:46.057Z,24.20
2022-08-17T20:41:31.682Z,24.20
2022-08-17T20:44:04.278Z,24.20
2022-08-17T20:46:38.145Z,24.20
2022-08-17T20:49:08.991Z,24.14
2022-08-17T20:52:00.468Z,24.10
2022-08-17T20:54:52.969Z,24.10
2022-08-17T20:57:32.687Z,24.18
2022-08-17T21:00:29.861Z,24.30
2022-08-17T21:03:47.628Z,24.40
2022-08-17T21:06:22.644Z,24.40
2022-08-17T21:09:29.888Z,24.40
2022-08-17T21:12:04.166Z,24.60
2022-08-17T21:14:51.293Z,24.70
2022-08-17T21:17:38.147Z,24.80
2022-08-17T21:20:40.176Z,24.90
2022-08-17T21:23:21.200Z,25.00
2022-08-17T21:26:30.830Z,24.90
2022-08-17T21:29:14.697Z,24.74
2022-08-17T21:31:59.486Z,24.70
2022-08-17T21:34:37.275Z,24.60
2022-08-17T21:37:20.518Z,24.60
2022-08-17T21:40:22.613Z,24.50
2022-08-17T21:43:00.251Z,24.50
2022-08-17T21:45:37.734Z,24.58
2022-08-17T21:48:24.004Z,24.54
2022-08-17T21:51:13.982Z,24.68
2022-08-17T21:53:50.628Z,24.60
2022-08-17T21:56:28.496Z,24.50
2022-08-17T21:59:27.480Z,24.60
2022-08-17T22:01:58.625Z,24.90
2022-08-17T22:04:40.680Z,24.90
2022-08-17T22:07:14.199Z,24.82
2022-08-17T22:09:50.036Z,24.80
2022-08-17T22:12:24.255Z,24.70
2022-08-17T22:15:02.297Z,24.70
2022-08-17T22:17:35.442Z,24.60
2022-08-17T22:20:20.725Z,24.60
2022-08-17T22:23:07.023Z,24.60
2022-08-17T22:25:39.888Z,24.50
2022-08-17T22:28:11.546Z,24.40
2022-08-17T22:30:59.705Z,24.34
2022-08-17T22:34:02.678Z,24.30
2022-08-17T22:36:41.861Z,24.20
2022-08-17T22:39:09.615Z,24.10
2022-08-17T22:41:57.230Z,24.00
2022-08-17T22:44:29.504Z,24.00
2022-08-17T22:47:16.431Z,23.90
2022-08-17T22:49:58.016Z,23.80
2022-08-17T22:52:59.113Z,23.80
2022-08-17T22:55:52.042Z,23.70
2022-08-17T22:58:42.627Z,23.60
2022-08-17T23:01:39.152Z,23.54
2022-08-17T23:04:31.654Z,23.50
2022-08-17T23:06:59.635Z,23.40
2022-08-17T23:09:27.394Z,23.36
2022-08-17T23:11:58.550Z,23.30
2022-08-17T23:14:31.894Z,23.30
2022-08-17T23:17:01.099Z,23.20
2022-08-17T23:19:31.763Z,23.20
2022-08-17T23:22:02.776Z,23.10
2022-08-17T23:24:37.837Z,23.06
2022-08-17T23:27:07.453Z,23.00
2022-08-17T23:29:39.330Z,22.92
2022-08-17T23:32:09.953Z,22.90
2022-08-17T23:34:39.894Z,22.90
2022-08-17T23:37:10.278Z,22.90
2022-08-17T23:39:39.464Z,22.90
2022-08-17T23:42:12.067Z,22.80
2022-08-17T23:44:50.719Z,22.80
2022-08-17T23:47:18.826Z,22.76
2022-08-17T23:49:46.513Z,22.70
2022-08-17T23:52:15.825Z,22.70
2022-08-17T23:54:48.526Z,22.70
2022-08-17T23:57:20.371Z,22.70
